createdAt,value
2022-08-05T00:00:18.330Z,24.49
2022-08-05T00:02:51.696Z,24.48
2022-08-05T00:06:02.723Z,24.45
2022-08-05T00:08:32.710Z,24.45
2022-08-05T00:11:00.994Z,24.41
2022-08-05T00:13:38.238Z,24.38
2022-08-05T00:16:10.859Z,24.37
2022-08-05T00:18:42.163Z,24.33
2022-08-05T00:21:10.529Z,24.33
2022-08-05T00:23:45.658Z,24.34
2022-08-05T00:26:22.578Z,24.35
2022-08-05T00:28:51.374Z,24.28
2022-08-05T00:31:54.399Z,24.27
2022-08-05T00:34:53.219Z,24.16
2022-08-05T00:37:13.139Z,24.08
2022-08-05T00:39:44.461Z,24.07
2022-08-05T00:42:35.291Z,24.02
2022-08-05T00:45:08.721Z,23.99
2022-08-05T00:47:56.854Z,23.97
2022-08-05T00:50:28.273Z,23.99
2022-08-05T00:52:55.989Z,23.95
2022-08-05T00:55:42.636Z,23.98
2022-08-05T00:58:14.285Z,24.04
2022-08-05T01:00:42.423Z,24.06
2022-08-05T01:03:22.386Z,24.05
2022-08-05T01:05:51.214Z,24.01
2022-08-05T01:08:30.789Z,23.91
2022-08-05T01:11:13.636Z,23.74
2022-08-05T01:13:58.904Z,23.80
2022-08-05T01:16:33.941Z,23.71
2022-08-05T01:19:10.394Z,23.73
2022-08-05T01:22:07.976Z,23.69
2022-08-05T01:25:04.486Z,23.43
2022-08-05T01:27:57.439Z,23.29
2022-08-05T01:30:34.752Z,23.18
2022-08-05T01:33:08.204Z,23.13
2022-08-05T01:35:51.679Z,23.04
2022-08-05T01:38:24.772Z,23.04
2022-08-05T01:40:58.581Z,23.04
2022-08-05T01:43:28.839Z,23.09
2022-08-05T01:45:58.543Z,23.09
2022-08-05T01:48:36.886Z,23.07
2022-08-05T01:51:12.396Z,23.05
2022-08-05T01:53:58.259Z,23.05
2022-08-05T01:58:13.784Z,23.17
2022-08-05T01:59:23.992Z,23.24
2022-08-05T02:01:57.651Z,23.32
2022-08-05T02:04:28.915Z,23.20
2022-08-05T02:06:59.038Z,23.20
2022-08-05T02:09:28.056Z,23.09
2022-08-05T02:12:10.112Z,22.95
2022-08-05T02:14:47.850Z,22.90
2022-08-05T02:18:28.258Z,22.89
2022-08-05T02:20:20.714Z,22.97
2022-08-05T02:22:57.932Z,23.00
2022-08-05T02:25:33.353Z,23.03
2022-08-05T02:28:08.666Z,23.09
2022-08-05T02:30:51.702Z,23.21
2022-08-05T02:33:24.492Z,23.21
2022-08-05T02:36:04.624Z,23.24
2022-08-05T02:38:35.461Z,23.22
2022-08-05T02:41:14.666Z,23.18
2022-08-05T02:44:02.882Z,23.18
2022-08-05T02:46:53.159Z,23.22
2022-08-05T02:49:26.533Z,23.15
2022-08-05T02:52:04.006Z,23.11
2022-08-05T02:54:37.103Z,23.05
2022-08-05T02:57:10.299Z,23.10
2022-08-05T02:59:56.156Z,23.03
2022-08-05T03:02:29.776Z,23.01
2022-08-05T03:04:58.885Z,23.02
2022-08-05T03:07:59.199Z,23.03
2022-08-05T03:10:21.991Z,23.13
2022-08-05T03:12:53.527Z,23.23
2022-08-05T03:15:21.635Z,23.24
2022-08-05T03:17:54.048Z,23.12
2022-08-05T03:20:23.641Z,23.08
2022-08-05T03:22:52.736Z,23.01
2022-08-05T03:25:33.308Z,22.93
2022-08-05T03:28:11.631Z,22.93
2022-08-05T03:30:42.414Z,23.01
2022-08-05T03:33:12.060Z,23.12
2022-08-05T03:35:41.681Z,23.18
2022-08-05T03:38:11.546Z,23.21
2022-08-05T03:40:41.150Z,23.29
2022-08-05T03:43:58.434Z,23.32
2022-08-05T03:46:01.426Z,23.36
2022-08-05T03:48:35.543Z,23.48
2022-08-05T03:52:39.253Z,23.54
2022-08-05T03:55:53.870Z,23.55
2022-08-05T03:56:54.056Z,23.68
2022-08-05T03:59:46.507Z,23.76
2022-08-05T04:02:37.834Z,23.80
2022-08-05T04:05:09.694Z,23.85
2022-08-05T04:07:58.295Z,23.87
2022-08-05T04:10:28.406Z,23.79
2022-08-05T04:13:00.083Z,23.71
2022-08-05T04:15:33.200Z,23.63
2022-08-05T04:18:07.294Z,23.72
2022-08-05T04:20:38.561Z,23.73
2022-08-05T04:23:12.549Z,23.68
2022-08-05T04:26:00.606Z,23.77
2022-08-05T04:28:30.799Z,23.79
2022-08-05T04:31:00.810Z,23.81
2022-08-05T04:33:54.591Z,23.82
2022-08-05T04:36:45.812Z,23.81
2022-08-05T04:39:05.875Z,23.76
2022-08-05T04:41:37.701Z,23.73
2022-08-05T04:44:08.862Z,23.74
2022-08-05T04:46:38.183Z,23.82
2022-08-05T04:49:05.921Z,23.86
2022-08-05T04:51:41.493Z,23.88
2022-08-05T04:54:10.380Z,23.83
2022-08-05T04:56:40.025Z,23.71
2022-08-05T04:59:22.226Z,23.67
2022-08-05T05:02:35.252Z,23.75
2022-08-05T05:04:43.877Z,23.76
2022-08-05T05:07:17.347Z,23.77
2022-08-05T05:09:45.179Z,23.82
2022-08-05T05:12:13.031Z,23.90
2022-08-05T05:14:49.573Z,23.87
2022-08-05T05:17:23.388Z,23.98
2022-08-05T05:19:54.305Z,24.10
2022-08-05T05:22:26.342Z,24.12
2022-08-05T05:24:57.669Z,24.05
2022-08-05T05:27:45.250Z,24.10
2022-08-05T05:30:30.927Z,24.09
2022-08-05T05:33:09.057Z,24.12
2022-08-05T05:35:45.011Z,24.13
2022-08-05T05:38:14.485Z,24.19
2022-08-05T05:40:50.047Z,24.26
2022-08-05T05:43:28.114Z,24.31
2022-08-05T05:46:15.687Z,24.37
2022-08-05T05:48:46.058Z,24.36
2022-08-05T05:51:20.739Z,24.42
2022-08-05T05:53:58.123Z,24.43
2022-08-05T05:56:32.634Z,24.42
2022-08-05T05:59:03.137Z,24.40
2022-08-05T06:01:37.057Z,24.40
2022-08-05T06:04:06.741Z,24.43
2022-08-05T06:06:34.974Z,24.55
2022-08-05T06:09:05.469Z,24.58
2022-08-05T06:11:33.319Z,24.59
2022-08-05T06:14:02.122Z,24.59
2022-08-05T06:16:33.026Z,24.63
2022-08-05T06:19:07.533Z,24.67
2022-08-05T06:21:38.730Z,24.65
2022-08-05T06:24:12.414Z,24.70
2022-08-05T06:26:51.770Z,24.72
2022-08-05T06:29:25.266Z,24.76
2022-08-05T06:32:24.921Z,24.81
2022-08-05T06:34:57.356Z,24.84
2022-08-05T06:37:58.177Z,24.84
2022-08-05T06:40:20.540Z,24.81
2022-08-05T06:42:51.924Z,24.82
2022-08-05T06:45:43.932Z,24.79
2022-08-05T06:48:37.148Z,24.85
2022-08-05T06:50:56.910Z,24.93
2022-08-05T06:53:28.663Z,25.01
2022-08-05T06:55:58.116Z,25.06
2022-08-05T06:58:35.104Z,25.08
2022-08-05T07:01:05.672Z,25.12
2022-08-05T07:03:34.032Z,25.22
2022-08-05T07:06:05.856Z,25.33
2022-08-05T07:08:42.850Z,25.41
2022-08-05T07:11:16.711Z,25.50
2022-08-05T07:14:30.153Z,25.62
2022-08-05T07:18:01.239Z,25.80
2022-08-05T07:20:34.057Z,25.94
2022-08-05T07:22:37.959Z,26.02
2022-08-05T07:25:22.182Z,26.10
2022-08-05T07:28:01.489Z,26.23
2022-08-05T07:30:34.692Z,26.32
2022-08-05T07:33:10.625Z,26.44
2022-08-05T07:36:02.889Z,26.64
2022-08-05T07:38:35.691Z,26.75
2022-08-05T07:42:09.069Z,26.93
2022-08-05T07:44:03.095Z,27.08
2022-08-05T07:46:33.759Z,27.13
2022-08-05T07:49:05.755Z,27.25
2022-08-05T07:51:36.868Z,27.29
2022-08-05T07:54:06.211Z,27.35
2022-08-05T07:56:59.791Z,27.53
2022-08-05T07:59:37.996Z,27.66
2022-08-05T08:02:16.041Z,27.73
2022-08-05T08:04:46.170Z,27.82
2022-08-05T08:07:13.909Z,28.01
2022-08-05T08:09:42.781Z,28.07
2022-08-05T08:12:30.578Z,28.02
2022-08-05T08:15:02.079Z,28.15
2022-08-05T08:17:30.851Z,28.20
2022-08-05T08:20:44.656Z,27.95
2022-08-05T08:22:51.856Z,27.87
2022-08-05T08:25:35.875Z,27.77
2022-08-05T08:28:11.373Z,27.77
2022-08-05T08:30:49.818Z,27.71
2022-08-05T08:33:19.814Z,27.91
2022-08-05T08:35:53.930Z,27.99
2022-08-05T08:38:37.612Z,28.17
2022-08-05T08:41:08.283Z,28.30
2022-08-05T08:45:17.974Z,28.48
2022-08-05T08:46:28.933Z,28.69
2022-08-05T08:49:06.345Z,28.87
2022-08-05T08:52:03.390Z,29.08
2022-08-05T08:54:36.311Z,28.94
2022-08-05T08:57:11.314Z,28.94
2022-08-05T08:59:41.854Z,29.11
2022-08-05T09:02:18.947Z,29.12
2022-08-05T09:04:57.808Z,29.18
2022-08-05T09:07:40.083Z,29.29
2022-08-05T09:10:27.131Z,29.16
2022-08-05T09:12:56.755Z,29.03
2022-08-05T09:15:27.614Z,29.10
2022-08-05T09:17:59.516Z,29.21
2022-08-05T09:20:37.345Z,29.35
2022-08-05T09:23:09.605Z,29.57
2022-08-05T09:26:02.277Z,29.67
2022-08-05T09:28:31.935Z,29.48
2022-08-05T09:31:18.123Z,29.40
2022-08-05T09:33:56.267Z,29.61
2022-08-05T09:36:27.608Z,29.74
2022-08-05T09:39:03.363Z,29.88
2022-08-05T09:41:58.943Z,29.81
2022-08-05T09:44:37.826Z,29.87
2022-08-05T09:47:13.932Z,30.02
2022-08-05T09:50:00.736Z,30.11
2022-08-05T09:52:31.429Z,30.19
2022-08-05T09:55:55.249Z,30.26
2022-08-05T09:57:49.307Z,30.18
2022-08-05T10:00:24.625Z,30.23
2022-08-05T10:02:54.645Z,30.42
2022-08-05T10:05:26.670Z,30.42
2022-08-05T10:08:35.081Z,30.33
2022-08-05T10:10:53.868Z,30.44
2022-08-05T10:13:31.688Z,30.49
2022-08-05T10:16:30.829Z,30.72
2022-08-05T10:19:00.299Z,30.89
2022-08-05T10:21:35.365Z,31.09
2022-08-05T10:24:10.603Z,31.23
2022-08-05T10:26:51.267Z,31.11
2022-08-05T10:29:23.405Z,31.07
2022-08-05T10:32:54.910Z,31.06
2022-08-05T10:34:40.764Z,31.26
2022-08-05T10:37:12.700Z,31.38
2022-08-05T10:39:59.386Z,31.38
2022-08-05T10:42:38.270Z,31.24
2022-08-05T10:45:23.474Z,30.97
2022-08-05T10:48:30.201Z,30.95
2022-08-05T10:50:59.272Z,31.26
2022-08-05T10:53:45.325Z,31.48
2022-08-05T10:56:21.135Z,31.55
2022-08-05T10:59:07.129Z,31.84
2022-08-05T11:01:55.662Z,32.11
2022-08-05T11:04:30.878Z,32.23
2022-08-05T11:07:08.815Z,32.38
2022-08-05T11:09:46.237Z,32.60
2022-08-05T11:12:45.403Z,32.69
2022-08-05T11:15:21.435Z,32.63
2022-08-05T11:17:59.689Z,32.23
2022-08-05T11:20:39.104Z,32.21
2022-08-05T11:23:33.401Z,32.19
2022-08-05T11:26:31.915Z,32.30
2022-08-05T11:29:11.646Z,32.47
2022-08-05T11:31:57.201Z,32.52
2022-08-05T11:34:39.328Z,32.73
2022-08-05T11:38:26.797Z,33.01
2022-08-05T11:40:02.873Z,33.34
2022-08-05T11:42:40.232Z,33.71
2022-08-05T11:45:23.217Z,33.87
2022-08-05T11:47:58.607Z,33.89
2022-08-05T11:50:26.925Z,33.93
2022-08-05T11:52:57.918Z,33.63
2022-08-05T11:55:31.786Z,33.98
2022-08-05T11:58:10.454Z,34.27
2022-08-05T12:00:41.355Z,34.56
2022-08-05T12:03:28.548Z,35.07
2022-08-05T12:06:01.008Z,35.46
2022-08-05T12:08:28.720Z,35.41
2022-08-05T12:11:05.564Z,35.64
2022-08-05T12:13:48.470Z,36.26
2022-08-05T12:16:19.871Z,36.79
2022-08-05T12:18:53.800Z,35.52
2022-08-05T12:21:24.447Z,34.63
2022-08-05T12:23:58.326Z,35.06
2022-08-05T12:26:32.024Z,35.84
2022-08-05T12:29:01.487Z,36.36
2022-08-05T12:31:41.503Z,36.76
2022-08-05T12:34:14.696Z,37.46
2022-08-05T12:36:49.455Z,38.15
2022-08-05T12:39:17.612Z,38.45
2022-08-05T12:41:46.690Z,39.03
2022-08-05T12:44:28.583Z,39.31
2022-08-05T12:47:01.636Z,39.35
2022-08-05T12:50:03.594Z,39.52
2022-08-05T12:52:35.411Z,38.26
2022-08-05T12:55:25.063Z,36.93
2022-08-05T12:58:50.461Z,37.66
2022-08-05T13:02:02.062Z,38.43
2022-08-05T13:03:42.272Z,38.09
2022-08-05T13:06:16.118Z,37.49
2022-08-05T13:08:51.454Z,36.90
2022-08-05T13:11:59.982Z,36.39
2022-08-05T13:14:24.827Z,35.18
2022-08-05T13:17:10.781Z,35.20
2022-08-05T13:19:51.857Z,34.97
2022-08-05T13:22:29.541Z,34.46
2022-08-05T13:25:00.619Z,34.31
2022-08-05T13:27:38.416Z,34.17
2022-08-05T13:30:35.731Z,34.17
2022-08-05T13:33:01.518Z,34.20
2022-08-05T13:35:42.898Z,34.36
2022-08-05T13:38:20.238Z,34.83
2022-08-05T13:40:57.902Z,35.32
2022-08-05T13:43:44.791Z,35.36
2022-08-05T13:46:30.852Z,35.12
2022-08-05T13:49:10.477Z,35.32
2022-08-05T13:51:41.550Z,34.85
2022-08-05T13:54:15.469Z,35.36
2022-08-05T13:56:45.597Z,34.82
2022-08-05T13:59:21.077Z,34.26
2022-08-05T14:01:56.908Z,34.30
2022-08-05T14:04:50.172Z,34.34
2022-08-05T14:07:56.871Z,34.36
2022-08-05T14:10:09.035Z,34.38
2022-08-05T14:12:36.807Z,34.08
2022-08-05T14:16:03.901Z,33.67
2022-08-05T14:17:54.882Z,33.40
2022-08-05T14:20:27.619Z,33.27
2022-08-05T14:22:55.901Z,33.07
2022-08-05T14:25:28.392Z,33.08
2022-08-05T14:27:56.648Z,32.98
2022-08-05T14:30:27.790Z,32.68
2022-08-05T14:32:56.864Z,32.69
2022-08-05T14:35:36.999Z,32.49
2022-08-05T14:38:33.212Z,32.47
2022-08-05T14:40:59.059Z,32.38
2022-08-05T14:44:00.122Z,32.28
2022-08-05T14:46:14.377Z,32.14
2022-08-05T14:48:42.257Z,32.04
2022-08-05T14:51:11.420Z,31.99
2022-08-05T14:53:44.450Z,31.92
2022-08-05T14:56:13.455Z,31.94
2022-08-05T14:58:47.696Z,31.94
2022-08-05T15:01:48.414Z,31.72
2022-08-05T15:04:09.873Z,31.62
2022-08-05T15:06:40.820Z,31.35
2022-08-05T15:09:08.477Z,31.47
2022-08-05T15:11:52.027Z,31.70
2022-08-05T15:14:34.525Z,32.25
2022-08-05T15:17:46.124Z,32.32
2022-08-05T15:19:57.644Z,32.13
2022-08-05T15:22:28.231Z,31.85
2022-08-05T15:24:56.687Z,31.71
2022-08-05T15:27:25.707Z,31.59
2022-08-05T15:29:54.214Z,31.19
2022-08-05T15:32:28.633Z,30.93
2022-08-05T15:34:56.797Z,30.78
2022-08-05T15:38:34.666Z,30.65
2022-08-05T15:41:00.500Z,30.61
2022-08-05T15:43:09.181Z,30.51
2022-08-05T15:45:44.382Z,30.33
2022-08-05T15:48:14.786Z,30.17
2022-08-05T15:50:43.689Z,29.99
2022-08-05T15:53:14.893Z,30.02
2022-08-05T15:56:02.396Z,29.94
2022-08-05T15:58:35.387Z,29.84
2022-08-05T16:01:16.994Z,29.67
2022-08-05T16:03:48.170Z,29.66
2022-08-05T16:06:20.222Z,29.76
2022-08-05T16:08:53.684Z,29.76
2022-08-05T16:11:42.459Z,29.76
2022-08-05T16:14:10.782Z,29.78
2022-08-05T16:16:45.996Z,30.15
2022-08-05T16:19:18.815Z,30.36
2022-08-05T16:22:00.182Z,30.42
2022-08-05T16:24:40.502Z,30.48
2022-08-05T16:27:10.059Z,30.26
2022-08-05T16:29:50.097Z,30.28
2022-08-05T16:32:23.386Z,30.15
2022-08-05T16:34:56.784Z,30.03
2022-08-05T16:38:15.980Z,29.66
2022-08-05T16:40:26.551Z,29.43
2022-08-05T16:42:57.102Z,29.38
2022-08-05T16:46:07.691Z,29.42
2022-08-05T16:48:25.743Z,29.18
2022-08-05T16:51:00.167Z,28.83
2022-08-05T16:54:03.407Z,30.41
2022-08-05T16:56:16.793Z,31.68
2022-08-05T16:58:45.004Z,32.09
2022-08-05T17:01:13.395Z,31.23
2022-08-05T17:03:41.441Z,30.42
2022-08-05T17:06:09.319Z,29.62
2022-08-05T17:08:52.003Z,29.13
2022-08-05T17:11:25.299Z,29.01
2022-08-05T17:14:00.647Z,28.66
2022-08-05T17:16:36.490Z,28.42
2022-08-05T17:19:07.373Z,28.12
2022-08-05T17:21:39.724Z,27.63
2022-08-05T17:24:19.648Z,27.57
2022-08-05T17:26:58.547Z,27.56
2022-08-05T17:29:33.587Z,27.45
2022-08-05T17:32:08.499Z,27.73
2022-08-05T17:34:39.324Z,27.91
2022-08-05T17:37:40.743Z,27.85
2022-08-05T17:39:55.843Z,27.54
2022-08-05T17:42:30.195Z,27.28
2022-08-05T17:45:00.293Z,27.09
2022-08-05T17:47:49.939Z,26.87
2022-08-05T17:50:27.687Z,26.60
2022-08-05T17:52:58.680Z,26.70
2022-08-05T17:55:27.411Z,26.70
2022-08-05T17:58:09.744Z,26.73
2022-08-05T18:00:40.748Z,26.63
2022-08-05T18:03:20.619Z,26.28
2022-08-05T18:05:56.035Z,26.04
2022-08-05T18:08:29.582Z,25.95
2022-08-05T18:10:57.907Z,25.89
2022-08-05T18:13:26.859Z,25.85
2022-08-05T18:16:04.939Z,25.67
2022-08-05T18:18:33.606Z,25.51
2022-08-05T18:21:13.072Z,25.30
2022-08-05T18:23:47.414Z,25.31
2022-08-05T18:26:18.761Z,24.97
2022-08-05T18:28:47.892Z,24.94
2022-08-05T18:31:15.682Z,24.84
2022-08-05T18:33:47.305Z,24.87
2022-08-05T18:36:19.461Z,24.89
2022-08-05T18:38:47.526Z,24.88
2022-08-05T18:41:57.878Z,24.97
2022-08-05T18:44:05.498Z,24.78
2022-08-05T18:46:34.400Z,24.70
2022-08-05T18:49:23.880Z,24.62
2022-08-05T18:52:12.425Z,24.42
2022-08-05T18:54:41.456Z,24.32
2022-08-05T18:57:15.448Z,24.43
2022-08-05T19:00:02.566Z,24.47
2022-08-05T19:02:31.877Z,24.36
2022-08-05T19:06:05.652Z,24.39
2022-08-05T19:07:49.846Z,24.29
2022-08-05T19:10:18.361Z,24.06
2022-08-05T19:12:54.504Z,24.04
2022-08-05T19:15:57.676Z,24.05
2022-08-05T19:18:13.690Z,24.13
2022-08-05T19:20:51.486Z,24.16
2022-08-05T19:23:22.403Z,24.11
2022-08-05T19:26:09.322Z,23.98
2022-08-05T19:28:41.537Z,23.78
2022-08-05T19:31:13.489Z,23.76
2022-08-05T19:33:48.585Z,23.73
2022-08-05T19:36:23.997Z,23.62
2022-08-05T19:38:52.111Z,23.62
2022-08-05T19:41:22.110Z,23.52
2022-08-05T19:44:13.005Z,23.49
2022-08-05T19:46:43.810Z,23.48
2022-08-05T19:49:12.482Z,23.51
2022-08-05T19:52:05.703Z,23.44
2022-08-05T19:54:34.087Z,23.41
2022-08-05T19:57:06.599Z,23.37
2022-08-05T19:59:55.859Z,23.38
2022-08-05T20:02:27.795Z,23.36
2022-08-05T20:04:58.733Z,23.29
2022-08-05T20:07:47.363Z,23.24
2022-08-05T20:10:15.397Z,23.35
2022-08-05T20:12:47.686Z,23.38
2022-08-05T20:15:23.246Z,23.43
2022-08-05T20:18:10.368Z,23.59
2022-08-05T20:20:56.172Z,23.66
2022-08-05T20:23:38.830Z,23.67
2022-08-05T20:26:16.378Z,23.47
2022-08-05T20:28:47.817Z,23.59
2022-08-05T20:31:16.482Z,23.68
2022-08-05T20:33:45.973Z,23.71
2022-08-05T20:36:16.417Z,23.75
2022-08-05T20:38:54.315Z,23.63
2022-08-05T20:41:27.455Z,23.63
2022-08-05T20:44:29.061Z,23.72
2022-08-05T20:46:59.877Z,23.78
2022-08-05T20:49:29.074Z,23.77
2022-08-05T20:51:58.137Z,23.73
2022-08-05T20:54:55.028Z,23.71
2022-08-05T20:57:14.769Z,23.78
2022-08-05T21:00:19.688Z,23.82
2022-08-05T21:02:48.850Z,23.89
2022-08-05T21:05:22.100Z,23.80
2022-08-05T21:07:51.767Z,23.80
2022-08-05T21:10:20.278Z,23.79
2022-08-05T21:12:57.961Z,23.81
2022-08-05T21:15:36.760Z,23.76
2022-08-05T21:18:04.996Z,23.73
2022-08-05T21:20:34.332Z,23.75
2022-08-05T21:23:03.053Z,23.73
2022-08-05T21:25:33.962Z,23.68
2022-08-05T21:28:02.916Z,23.54
2022-08-05T21:30:31.301Z,23.55
2022-08-05T21:32:59.692Z,23.56
2022-08-05T21:35:55.444Z,23.49
2022-08-05T21:38:19.900Z,23.56
2022-08-05T21:40:47.566Z,23.51
2022-08-05T21:43:24.153Z,23.52
2022-08-05T21:45:57.987Z,23.42
2022-08-05T21:48:28.485Z,23.49
2022-08-05T21:50:56.165Z,23.60
2022-08-05T21:53:27.551Z,23.69
2022-08-05T21:56:05.055Z,23.76
2022-08-05T21:58:34.306Z,23.66
2022-08-05T22:01:05.492Z,23.60
2022-08-05T22:03:52.793Z,23.57
2022-08-05T22:06:34.696Z,23.46
2022-08-05T22:09:13.063Z,23.49
2022-08-05T22:11:43.458Z,23.62
2022-08-05T22:14:33.375Z,23.58
2022-08-05T22:17:03.932Z,23.62
2022-08-05T22:20:01.317Z,23.57
2022-08-05T22:22:27.798Z,23.61
2022-08-05T22:25:21.716Z,23.58
2022-08-05T22:28:09.029Z,23.51
2022-08-05T22:30:44.264Z,23.54
2022-08-05T22:33:55.534Z,23.51
2022-08-05T22:36:10.909Z,23.58
2022-08-05T22:38:42.765Z,23.56
2022-08-05T22:41:12.029Z,23.56
2022-08-05T22:43:42.762Z,23.51
2022-08-05T22:46:11.996Z,23.51
2022-08-05T22:48:41.141Z,23.42
2022-08-05T22:51:15.994Z,23.28
2022-08-05T22:53:51.267Z,23.28
2022-08-05T22:56:30.010Z,23.25
2022-08-05T22:59:00.044Z,23.23
2022-08-05T23:02:04.293Z,23.16
2022-08-05T23:04:18.659Z,23.16
2022-08-05T23:06:47.744Z,23.15
2022-08-05T23:09:27.647Z,23.09
2022-08-05T23:12:05.545Z,23.02
2022-08-05T23:14:33.701Z,23.04
2022-08-05T23:17:23.954Z,23.12
2022-08-05T23:19:56.087Z,23.20
2022-08-05T23:22:27.306Z,23.09
2022-08-05T23:24:55.702Z,23.14
2022-08-05T23:27:28.868Z,23.11
2022-08-05T23:30:00.744Z,23.14
2022-08-05T23:32:28.816Z,23.04
2022-08-05T23:34:56.805Z,22.83
2022-08-05T23:37:24.561Z,22.81
2022-08-05T23:39:55.040Z,22.85
2022-08-05T23:42:29.534Z,22.85
2022-08-05T23:44:57.409Z,22.88
2022-08-05T23:47:25.430Z,22.95
2022-08-05T23:49:57.077Z,23.02
2022-08-05T23:52:29.256Z,23.03
2022-08-05T23:55:02.015Z,23.07
2022-08-05T23:57:35.238Z,23.09
